sensor_id;sensor_type;location;lat;lon;timestamp;temperature;humidity
16838;DHT22;19510;54.486;9.046;2023-05-07T00:00:20;9.10;99.90
16838;DHT22;19510;54.486;9.046;2023-05-07T00:02:46;9.10;99.90
16838;DHT22;19510;54.486;9.046;2023-05-07T00:05:12;9.10;99.90
16838;DHT22;19510;54.486;9.046;2023-05-07T00:07:38;9.10;99.90
16838;DHT22;19510;54.486;9.046;2023-05-07T00:10:04;9.10;99.90
16838;DHT22;19510;54.486;9.046;2023-05-07T00:12:32;9.20;99.90
16838;DHT22;19510;54.486;9.046;2023-05-07T00:15:00;9.20;99.90
16838;DHT22;19510;54.486;9.046;2023-05-07T00:17:26;9.10;99.90
16838;DHT22;19510;54.486;9.046;2023-05-07T00:19:51;9.20;99.90
16838;DHT22;19510;54.486;9.046;2023-05-07T00:22:17;9.20;99.90
16838;DHT22;19510;54.486;9.046;2023-05-07T00:24:43;9.20;99.90
16838;DHT22;19510;54.486;9.046;2023-05-07T00:27:09;9.20;99.90
16838;DHT22;19510;54.486;9.046;2023-05-07T00:29:34;9.20;99.90
16838;DHT22;19510;54.486;9.046;2023-05-07T00:32:02;9.10;99.90
16838;DHT22;19510;54.486;9.046;2023-05-07T00:34:27;9.10;99.90
16838;DHT22;19510;54.486;9.046;2023-05-07T00:36:53;9.10;99.90
16838;DHT22;19510;54.486;9.046;2023-05-07T00:39:19;9.10;99.90
16838;DHT22;19510;54.486;9.046;2023-05-07T00:41:45;9.10;99.90
16838;DHT22;19510;54.486;9.046;2023-05-07T00:44:11;9.10;99.90
16838;DHT22;19510;54.486;9.046;2023-05-07T00:46:37;9.10;99.90
16838;DHT22;19510;54.486;9.046;2023-05-07T00:49:03;9.10;99.90
16838;DHT22;19510;54.486;9.046;2023-05-07T00:51:30;9.20;99.90
16838;DHT22;19510;54.486;9.046;2023-05-07T00:53:56;9.10;99.90
16838;DHT22;19510;54.486;9.046;2023-05-07T00:56:22;9.20;99.90
16838;DHT22;19510;54.486;9.046;2023-05-07T00:58:49;9.20;99.90
16838;DHT22;19510;54.486;9.046;2023-05-07T01:01:15;9.20;99.90
16838;DHT22;19510;54.486;9.046;2023-05-07T01:03:43;9.20;99.90
16838;DHT22;19510;54.486;9.046;2023-05-07T01:06:10;9.20;99.90
16838;DHT22;19510;54.486;9.046;2023-05-07T01:08:39;9.20;99.90
16838;DHT22;19510;54.486;9.046;2023-05-07T01:11:07;9.20;99.90
16838;DHT22;19510;54.486;9.046;2023-05-07T01:13:34;9.20;99.90
16838;DHT22;19510;54.486;9.046;2023-05-07T01:16:03;9.20;99.90
16838;DHT22;19510;54.486;9.046;2023-05-07T01:18:29;9.20;99.90
16838;DHT22;19510;54.486;9.046;2023-05-07T01:20:58;9.20;99.90
16838;DHT22;19510;54.486;9.046;2023-05-07T01:23:24;9.20;99.90
16838;DHT22;19510;54.486;9.046;2023-05-07T01:25:54;9.20;99.90
16838;DHT22;19510;54.486;9.046;2023-05-07T01:28:20;9.20;99.90
16838;DHT22;19510;54.486;9.046;2023-05-07T01:30:50;9.20;99.90
16838;DHT22;19510;54.486;9.046;2023-05-07T01:33:19;9.20;99.90
16838;DHT22;19510;54.486;9.046;2023-05-07T01:35:50;9.20;99.90
16838;DHT22;19510;54.486;9.046;2023-05-07T01:38:17;9.20;99.90
16838;DHT22;19510;54.486;9.046;2023-05-07T01:40:43;9.30;99.90
16838;DHT22;19510;54.486;9.046;2023-05-07T01:43:09;9.30;99.90
16838;DHT22;19510;54.486;9.046;2023-05-07T01:45:36;9.20;99.90
16838;DHT22;19510;54.486;9.046;2023-05-07T01:48:03;9.30;99.90
16838;DHT22;19510;54.486;9.046;2023-05-07T01:50:29;9.30;99.90
16838;DHT22;19510;54.486;9.046;2023-05-07T01:52:56;9.30;99.90
16838;DHT22;19510;54.486;9.046;2023-05-07T01:55:22;9.30;99.90
16838;DHT22;19510;54.486;9.046;2023-05-07T01:57:48;9.30;99.90
16838;DHT22;19510;54.486;9.046;2023-05-07T02:00:13;9.30;99.90
16838;DHT22;19510;54.486;9.046;2023-05-07T02:02:39;9.30;99.90
16838;DHT22;19510;54.486;9.046;2023-05-07T02:05:05;9.30;99.90
16838;DHT22;19510;54.486;9.046;2023-05-07T02:07:31;9.30;99.90
16838;DHT22;19510;54.486;9.046;2023-05-07T02:09:57;9.30;99.90
16838;DHT22;19510;54.486;9.046;2023-05-07T02:12:23;9.30;99.90
16838;DHT22;19510;54.486;9.046;2023-05-07T02:14:49;9.30;99.90
16838;DHT22;19510;54.486;9.046;2023-05-07T02:17:15;9.30;99.90
16838;DHT22;19510;54.486;9.046;2023-05-07T02:19:41;9.30;99.90
16838;DHT22;19510;54.486;9.046;2023-05-07T02:22:07;9.40;99.90
16838;DHT22;19510;54.486;9.046;2023-05-07T02:24:33;9.30;99.90
16838;DHT22;19510;54.486;9.046;2023-05-07T02:26:58;9.30;99.90
16838;DHT22;19510;54.486;9.046;2023-05-07T02:29:24;9.40;99.90
16838;DHT22;19510;54.486;9.046;2023-05-07T02:31:50;9.40;99.90
16838;DHT22;19510;54.486;9.046;2023-05-07T02:34:18;9.40;99.90
16838;DHT22;19510;54.486;9.046;2023-05-07T02:36:44;9.40;99.90
16838;DHT22;19510;54.486;9.046;2023-05-07T02:39:12;9.40;99.90
16838;DHT22;19510;54.486;9.046;2023-05-07T02:41:38;9.40;99.90
16838;DHT22;19510;54.486;9.046;2023-05-07T02:44:04;9.40;99.90
16838;DHT22;19510;54.486;9.046;2023-05-07T02:46:30;9.50;99.90
16838;DHT22;19510;54.486;9.046;2023-05-07T02:48:56;9.40;99.90
16838;DHT22;19510;54.486;9.046;2023-05-07T02:51:22;9.50;99.90
16838;DHT22;19510;54.486;9.046;2023-05-07T02:53:48;9.40;99.90
16838;DHT22;19510;54.486;9.046;2023-05-07T02:56:14;9.40;99.90
16838;DHT22;19510;54.486;9.046;2023-05-07T02:58:40;9.40;99.90
16838;DHT22;19510;54.486;9.046;2023-05-07T03:01:06;9.50;99.90
16838;DHT22;19510;54.486;9.046;2023-05-07T03:03:32;9.50;99.90
16838;DHT22;19510;54.486;9.046;2023-05-07T03:05:57;9.50;99.90
16838;DHT22;19510;54.486;9.046;2023-05-07T03:08:24;9.50;99.90
16838;DHT22;19510;54.486;9.046;2023-05-07T03:10:50;9.50;99.90
16838;DHT22;19510;54.486;9.046;2023-05-07T03:13:16;9.60;99.90
16838;DHT22;19510;54.486;9.046;2023-05-07T03:15:42;9.60;99.90
16838;DHT22;19510;54.486;9.046;2023-05-07T03:18:07;9.60;99.90
16838;DHT22;19510;54.486;9.046;2023-05-07T03:20:33;9.60;99.90
16838;DHT22;19510;54.486;9.046;2023-05-07T03:22:59;9.60;99.90
16838;DHT22;19510;54.486;9.046;2023-05-07T03:25:25;9.60;99.90
16838;DHT22;19510;54.486;9.046;2023-05-07T03:27:51;9.60;99.90
16838;DHT22;19510;54.486;9.046;2023-05-07T03:30:16;9.60;99.90
16838;DHT22;19510;54.486;9.046;2023-05-07T03:32:43;9.60;99.90
16838;DHT22;19510;54.486;9.046;2023-05-07T03:35:09;9.60;99.90
16838;DHT22;19510;54.486;9.046;2023-05-07T03:37:35;9.60;99.90
16838;DHT22;19510;54.486;9.046;2023-05-07T03:40:01;9.70;99.90
16838;DHT22;19510;54.486;9.046;2023-05-07T03:42:29;9.70;99.90
16838;DHT22;19510;54.486;9.046;2023-05-07T03:44:55;9.70;99.90
16838;DHT22;19510;54.486;9.046;2023-05-07T03:47:21;9.70;99.90
16838;DHT22;19510;54.486;9.046;2023-05-07T03:49:46;9.70;99.90
16838;DHT22;19510;54.486;9.046;2023-05-07T03:52:13;9.70;99.90
16838;DHT22;19510;54.486;9.046;2023-05-07T03:54:40;9.70;99.90
16838;DHT22;19510;54.486;9.046;2023-05-07T03:57:05;9.70;99.90
16838;DHT22;19510;54.486;9.046;2023-05-07T03:59:31;9.70;99.90
16838;DHT22;19510;54.486;9.046;2023-05-07T04:01:58;9.70;99.90
16838;DHT22;19510;54.486;9.046;2023-05-07T04:04:23;9.70;99.90
16838;DHT22;19510;54.486;9.046;2023-05-07T04:06:49;9.70;99.90
16838;DHT22;19510;54.486;9.046;2023-05-07T04:09:15;9.70;99.90
16838;DHT22;19510;54.486;9.046;2023-05-07T04:11:41;9.70;99.90
16838;DHT22;19510;54.486;9.046;2023-05-07T04:14:07;9.70;99.90
16838;DHT22;19510;54.486;9.046;2023-05-07T04:16:32;9.70;99.90
16838;DHT22;19510;54.486;9.046;2023-05-07T04:18:59;9.70;99.90
16838;DHT22;19510;54.486;9.046;2023-05-07T04:21:25;9.70;99.90
16838;DHT22;19510;54.486;9.046;2023-05-07T04:23:51;9.70;99.90
16838;DHT22;19510;54.486;9.046;2023-05-07T04:26:17;9.70;99.90
16838;DHT22;19510;54.486;9.046;2023-05-07T04:28:43;9.70;99.90
16838;DHT22;19510;54.486;9.046;2023-05-07T04:31:09;9.70;99.90
16838;DHT22;19510;54.486;9.046;2023-05-07T04:33:34;9.70;99.90
16838;DHT22;19510;54.486;9.046;2023-05-07T04:36:04;9.70;99.90
16838;DHT22;19510;54.486;9.046;2023-05-07T04:38:30;9.70;99.90
16838;DHT22;19510;54.486;9.046;2023-05-07T04:40:57;9.80;99.90
16838;DHT22;19510;54.486;9.046;2023-05-07T04:43:23;9.80;99.90
16838;DHT22;19510;54.486;9.046;2023-05-07T04:45:52;9.80;99.90
16838;DHT22;19510;54.486;9.046;2023-05-07T04:48:17;9.80;99.90
16838;DHT22;19510;54.486;9.046;2023-05-07T04:50:51;9.70;99.90
16838;DHT22;19510;54.486;9.046;2023-05-07T04:53:17;9.80;99.90
16838;DHT22;19510;54.486;9.046;2023-05-07T04:55:44;9.80;99.90
16838;DHT22;19510;54.486;9.046;2023-05-07T04:58:11;9.80;99.90
16838;DHT22;19510;54.486;9.046;2023-05-07T05:00:37;9.80;99.90
16838;DHT22;19510;54.486;9.046;2023-05-07T05:03:04;9.80;99.90
16838;DHT22;19510;54.486;9.046;2023-05-07T05:05:30;9.80;99.90
16838;DHT22;19510;54.486;9.046;2023-05-07T05:07:56;9.80;99.90
16838;DHT22;19510;54.486;9.046;2023-05-07T05:10:22;9.80;99.90
16838;DHT22;19510;54.486;9.046;2023-05-07T05:12:48;9.80;99.90
16838;DHT22;19510;54.486;9.046;2023-05-07T05:15:13;9.80;99.90
16838;DHT22;19510;54.486;9.046;2023-05-07T05:17:39;9.80;99.90
16838;DHT22;19510;54.486;9.046;2023-05-07T05:20:06;9.80;99.90
16838;DHT22;19510;54.486;9.046;2023-05-07T05:22:32;9.80;99.90
16838;DHT22;19510;54.486;9.046;2023-05-07T05:24:58;9.80;99.90
16838;DHT22;19510;54.486;9.046;2023-05-07T05:27:24;9.80;99.90
16838;DHT22;19510;54.486;9.046;2023-05-07T05:29:50;9.90;99.90
16838;DHT22;19510;54.486;9.046;2023-05-07T05:32:15;9.90;99.90
16838;DHT22;19510;54.486;9.046;2023-05-07T05:34:41;9.90;99.90
16838;DHT22;19510;54.486;9.046;2023-05-07T05:37:07;9.90;99.90
16838;DHT22;19510;54.486;9.046;2023-05-07T05:39:33;10.00;99.90
16838;DHT22;19510;54.486;9.046;2023-05-07T05:41:59;10.00;99.90
16838;DHT22;19510;54.486;9.046;2023-05-07T05:44:26;10.00;99.90
16838;DHT22;19510;54.486;9.046;2023-05-07T05:46:52;10.00;99.90
16838;DHT22;19510;54.486;9.046;2023-05-07T05:49:20;10.00;99.90
16838;DHT22;19510;54.486;9.046;2023-05-07T05:51:46;10.00;99.90
16838;DHT22;19510;54.486;9.046;2023-05-07T05:54:12;10.00;99.90
16838;DHT22;19510;54.486;9.046;2023-05-07T05:56:38;9.90;99.90
16838;DHT22;19510;54.486;9.046;2023-05-07T05:59:06;9.90;99.90
16838;DHT22;19510;54.486;9.046;2023-05-07T06:01:32;9.90;99.90
16838;DHT22;19510;54.486;9.046;2023-05-07T06:03:58;9.90;99.90
16838;DHT22;19510;54.486;9.046;2023-05-07T06:06:24;10.00;99.90
16838;DHT22;19510;54.486;9.046;2023-05-07T06:08:49;10.00;99.90
16838;DHT22;19510;54.486;9.046;2023-05-07T06:11:15;9.90;99.90
16838;DHT22;19510;54.486;9.046;2023-05-07T06:13:41;10.00;99.90
16838;DHT22;19510;54.486;9.046;2023-05-07T06:16:07;9.90;99.90
16838;DHT22;19510;54.486;9.046;2023-05-07T06:18:32;9.90;99.90
16838;DHT22;19510;54.486;9.046;2023-05-07T06:20:58;10.00;99.90
16838;DHT22;19510;54.486;9.046;2023-05-07T06:23:24;10.00;99.90
16838;DHT22;19510;54.486;9.046;2023-05-07T06:25:50;10.00;99.90
16838;DHT22;19510;54.486;9.046;2023-05-07T06:28:16;10.00;99.90
16838;DHT22;19510;54.486;9.046;2023-05-07T06:30:42;10.00;99.90
16838;DHT22;19510;54.486;9.046;2023-05-07T06:33:08;10.00;99.90
16838;DHT22;19510;54.486;9.046;2023-05-07T06:35:34;10.10;99.90
16838;DHT22;19510;54.486;9.046;2023-05-07T06:38:00;10.10;99.90
16838;DHT22;19510;54.486;9.046;2023-05-07T06:40:26;10.10;99.90
16838;DHT22;19510;54.486;9.046;2023-05-07T06:42:52;10.20;99.90
16838;DHT22;19510;54.486;9.046;2023-05-07T06:45:22;10.20;99.90
16838;DHT22;19510;54.486;9.046;2023-05-07T06:47:47;10.20;99.90
16838;DHT22;19510;54.486;9.046;2023-05-07T06:50:13;10.20;99.90
16838;DHT22;19510;54.486;9.046;2023-05-07T06:52:41;10.30;99.90
16838;DHT22;19510;54.486;9.046;2023-05-07T06:55:07;10.30;99.90
16838;DHT22;19510;54.486;9.046;2023-05-07T06:57:33;10.30;99.90
16838;DHT22;19510;54.486;9.046;2023-05-07T06:59:59;10.30;99.90
16838;DHT22;19510;54.486;9.046;2023-05-07T07:02:27;10.40;99.90
16838;DHT22;19510;54.486;9.046;2023-05-07T07:04:53;10.40;99.90
16838;DHT22;19510;54.486;9.046;2023-05-07T07:07:18;10.40;99.90
16838;DHT22;19510;54.486;9.046;2023-05-07T07:09:44;10.40;99.90
16838;DHT22;19510;54.486;9.046;2023-05-07T07:12:10;10.40;99.90
16838;DHT22;19510;54.486;9.046;2023-05-07T07:14:36;10.50;99.90
16838;DHT22;19510;54.486;9.046;2023-05-07T07:17:01;10.50;99.90
16838;DHT22;19510;54.486;9.046;2023-05-07T07:19:27;10.60;99.90
16838;DHT22;19510;54.486;9.046;2023-05-07T07:21:53;10.60;99.90
16838;DHT22;19510;54.486;9.046;2023-05-07T07:24:19;10.70;99.90
16838;DHT22;19510;54.486;9.046;2023-05-07T07:26:46;10.70;99.90
16838;DHT22;19510;54.486;9.046;2023-05-07T07:29:13;10.70;99.90
16838;DHT22;19510;54.486;9.046;2023-05-07T07:31:38;10.80;99.90
16838;DHT22;19510;54.486;9.046;2023-05-07T07:34:04;10.90;99.90
16838;DHT22;19510;54.486;9.046;2023-05-07T07:36:30;10.90;99.90
16838;DHT22;19510;54.486;9.046;2023-05-07T07:38:56;10.90;99.90
16838;DHT22;19510;54.486;9.046;2023-05-07T07:41:22;11.00;99.90
16838;DHT22;19510;54.486;9.046;2023-05-07T07:43:47;11.00;99.90
16838;DHT22;19510;54.486;9.046;2023-05-07T07:46:16;11.00;99.90
16838;DHT22;19510;54.486;9.046;2023-05-07T07:48:43;11.00;99.90
16838;DHT22;19510;54.486;9.046;2023-05-07T07:51:10;11.10;99.90
16838;DHT22;19510;54.486;9.046;2023-05-07T07:53:35;11.00;99.90
16838;DHT22;19510;54.486;9.046;2023-05-07T07:56:01;11.10;99.90
16838;DHT22;19510;54.486;9.046;2023-05-07T07:58:27;11.10;99.90
16838;DHT22;19510;54.486;9.046;2023-05-07T08:00:53;11.20;99.90
16838;DHT22;19510;54.486;9.046;2023-05-07T08:03:21;11.20;99.90
16838;DHT22;19510;54.486;9.046;2023-05-07T08:05:47;11.30;99.90
16838;DHT22;19510;54.486;9.046;2023-05-07T08:08:12;11.30;99.90
16838;DHT22;19510;54.486;9.046;2023-05-07T08:10:38;11.30;99.90
16838;DHT22;19510;54.486;9.046;2023-05-07T08:13:04;11.40;99.90
16838;DHT22;19510;54.486;9.046;2023-05-07T08:15:31;11.50;99.90
16838;DHT22;19510;54.486;9.046;2023-05-07T08:17:57;11.60;99.90
16838;DHT22;19510;54.486;9.046;2023-05-07T08:20:23;11.60;99.90
16838;DHT22;19510;54.486;9.046;2023-05-07T08:22:49;11.70;99.90
16838;DHT22;19510;54.486;9.046;2023-05-07T08:25:16;11.70;99.90
16838;DHT22;19510;54.486;9.046;2023-05-07T08:27:42;11.70;99.90
16838;DHT22;19510;54.486;9.046;2023-05-07T08:30:11;11.70;99.90
16838;DHT22;19510;54.486;9.046;2023-05-07T08:32:37;11.70;99.90
16838;DHT22;19510;54.486;9.046;2023-05-07T08:35:02;11.80;99.90
16838;DHT22;19510;54.486;9.046;2023-05-07T08:37:28;11.80;99.90
16838;DHT22;19510;54.486;9.046;2023-05-07T08:39:54;11.90;99.90
16838;DHT22;19510;54.486;9.046;2023-05-07T08:42:20;11.90;99.90
16838;DHT22;19510;54.486;9.046;2023-05-07T08:44:51;12.00;99.90
16838;DHT22;19510;54.486;9.046;2023-05-07T08:47:20;12.00;99.90
16838;DHT22;19510;54.486;9.046;2023-05-07T08:49:48;12.00;99.90
16838;DHT22;19510;54.486;9.046;2023-05-07T08:52:15;12.10;99.90
16838;DHT22;19510;54.486;9.046;2023-05-07T08:54:41;12.20;99.90
16838;DHT22;19510;54.486;9.046;2023-05-07T08:57:06;12.20;99.90
16838;DHT22;19510;54.486;9.046;2023-05-07T08:59:32;12.30;99.90
16838;DHT22;19510;54.486;9.046;2023-05-07T09:01:58;12.40;99.90
16838;DHT22;19510;54.486;9.046;2023-05-07T09:04:24;12.50;99.90
16838;DHT22;19510;54.486;9.046;2023-05-07T09:06:50;12.60;99.90
16838;DHT22;19510;54.486;9.046;2023-05-07T09:09:17;12.70;99.90
16838;DHT22;19510;54.486;9.046;2023-05-07T09:11:44;12.70;99.90
16838;DHT22;19510;54.486;9.046;2023-05-07T09:14:10;12.70;99.90
16838;DHT22;19510;54.486;9.046;2023-05-07T09:16:35;12.70;99.90
16838;DHT22;19510;54.486;9.046;2023-05-07T09:19:01;12.70;99.90
16838;DHT22;19510;54.486;9.046;2023-05-07T09:21:27;12.70;99.90
16838;DHT22;19510;54.486;9.046;2023-05-07T09:23:54;12.80;99.90
16838;DHT22;19510;54.486;9.046;2023-05-07T09:26:24;12.80;99.90
16838;DHT22;19510;54.486;9.046;2023-05-07T09:28:50;12.80;99.90
16838;DHT22;19510;54.486;9.046;2023-05-07T09:31:17;12.80;99.90
16838;DHT22;19510;54.486;9.046;2023-05-07T09:33:42;12.80;99.90
16838;DHT22;19510;54.486;9.046;2023-05-07T09:36:09;12.90;99.90
16838;DHT22;19510;54.486;9.046;2023-05-07T09:38:36;13.10;99.90
16838;DHT22;19510;54.486;9.046;2023-05-07T09:41:07;13.20;99.90
16838;DHT22;19510;54.486;9.046;2023-05-07T09:43:34;13.20;99.90
16838;DHT22;19510;54.486;9.046;2023-05-07T09:46:06;13.30;99.90
16838;DHT22;19510;54.486;9.046;2023-05-07T09:48:37;13.30;99.90
16838;DHT22;19510;54.486;9.046;2023-05-07T09:51:11;13.30;99.90
16838;DHT22;19510;54.486;9.046;2023-05-07T09:53:39;13.50;99.90
16838;DHT22;19510;54.486;9.046;2023-05-07T09:56:06;13.60;99.90
16838;DHT22;19510;54.486;9.046;2023-05-07T09:58:33;13.60;99.90
16838;DHT22;19510;54.486;9.046;2023-05-07T10:01:02;13.60;99.90
16838;DHT22;19510;54.486;9.046;2023-05-07T10:03:30;13.80;99.90
16838;DHT22;19510;54.486;9.046;2023-05-07T10:06:01;13.90;99.90
16838;DHT22;19510;54.486;9.046;2023-05-07T10:08:28;14.00;99.90
16838;DHT22;19510;54.486;9.046;2023-05-07T10:10:56;14.00;99.90
16838;DHT22;19510;54.486;9.046;2023-05-07T10:13:22;14.10;99.90
16838;DHT22;19510;54.486;9.046;2023-05-07T10:15:47;14.20;99.90
16838;DHT22;19510;54.486;9.046;2023-05-07T10:18:14;14.40;99.90
16838;DHT22;19510;54.486;9.046;2023-05-07T10:20:42;14.50;99.90
16838;DHT22;19510;54.486;9.046;2023-05-07T10:23:16;14.50;99.90
16838;DHT22;19510;54.486;9.046;2023-05-07T10:25:46;14.60;99.90
16838;DHT22;19510;54.486;9.046;2023-05-07T10:28:12;14.60;99.90
16838;DHT22;19510;54.486;9.046;2023-05-07T10:33:15;15.00;99.90
16838;DHT22;19510;54.486;9.046;2023-05-07T10:35:45;15.20;99.90
16838;DHT22;19510;54.486;9.046;2023-05-07T10:38:12;15.30;99.90
16838;DHT22;19510;54.486;9.046;2023-05-07T10:40:38;15.50;99.90
16838;DHT22;19510;54.486;9.046;2023-05-07T10:43:05;15.70;99.90
16838;DHT22;19510;54.486;9.046;2023-05-07T10:45:31;15.60;99.90
16838;DHT22;19510;54.486;9.046;2023-05-07T10:48:10;15.50;99.90
16838;DHT22;19510;54.486;9.046;2023-05-07T10:50:37;15.60;99.90
16838;DHT22;19510;54.486;9.046;2023-05-07T10:55:48;15.80;99.90
16838;DHT22;19510;54.486;9.046;2023-05-07T10:58:27;15.80;99.90
16838;DHT22;19510;54.486;9.046;2023-05-07T11:01:01;15.70;99.90
16838;DHT22;19510;54.486;9.046;2023-05-07T11:03:28;15.80;99.90
16838;DHT22;19510;54.486;9.046;2023-05-07T11:06:10;15.80;99.90
16838;DHT22;19510;54.486;9.046;2023-05-07T11:08:52;15.80;99.90
16838;DHT22;19510;54.486;9.046;2023-05-07T11:11:18;16.00;99.90
16838;DHT22;19510;54.486;9.046;2023-05-07T11:13:46;16.20;99.90
16838;DHT22;19510;54.486;9.046;2023-05-07T11:16:22;16.20;99.90
16838;DHT22;19510;54.486;9.046;2023-05-07T11:18:50;16.30;99.90
16838;DHT22;19510;54.486;9.046;2023-05-07T11:21:39;16.40;99.90
16838;DHT22;19510;54.486;9.046;2023-05-07T11:24:09;16.40;99.90
16838;DHT22;19510;54.486;9.046;2023-05-07T11:26:43;16.40;99.90
16838;DHT22;19510;54.486;9.046;2023-05-07T11:29:18;16.40;99.90
16838;DHT22;19510;54.486;9.046;2023-05-07T11:31:51;16.40;99.90
16838;DHT22;19510;54.486;9.046;2023-05-07T11:34:25;16.60;99.90
16838;DHT22;19510;54.486;9.046;2023-05-07T11:36:51;16.80;99.90
16838;DHT22;19510;54.486;9.046;2023-05-07T11:39:31;17.00;99.90
16838;DHT22;19510;54.486;9.046;2023-05-07T11:41:59;17.10;99.90
16838;DHT22;19510;54.486;9.046;2023-05-07T11:44:25;17.30;99.90
16838;DHT22;19510;54.486;9.046;2023-05-07T11:46:51;17.40;99.90
16838;DHT22;19510;54.486;9.046;2023-05-07T11:49:17;17.40;99.90
16838;DHT22;19510;54.486;9.046;2023-05-07T11:51:43;17.30;99.90
16838;DHT22;19510;54.486;9.046;2023-05-07T11:54:11;17.20;99.90
16838;DHT22;19510;54.486;9.046;2023-05-07T11:56:40;17.10;99.90
16838;DHT22;19510;54.486;9.046;2023-05-07T11:59:06;17.00;99.90
16838;DHT22;19510;54.486;9.046;2023-05-07T12:01:32;17.10;99.90
16838;DHT22;19510;54.486;9.046;2023-05-07T12:04:03;17.20;99.90
16838;DHT22;19510;54.486;9.046;2023-05-07T12:06:28;17.20;99.90
16838;DHT22;19510;54.486;9.046;2023-05-07T12:08:55;17.30;99.90
16838;DHT22;19510;54.486;9.046;2023-05-07T12:11:25;17.50;99.90
16838;DHT22;19510;54.486;9.046;2023-05-07T12:13:51;17.80;99.90
16838;DHT22;19510;54.486;9.046;2023-05-07T12:16:19;18.10;99.90
16838;DHT22;19510;54.486;9.046;2023-05-07T12:18:45;18.30;99.90
16838;DHT22;19510;54.486;9.046;2023-05-07T12:21:12;18.50;99.90
16838;DHT22;19510;54.486;9.046;2023-05-07T12:23:38;18.70;99.90
16838;DHT22;19510;54.486;9.046;2023-05-07T12:26:06;18.70;99.90
16838;DHT22;19510;54.486;9.046;2023-05-07T12:28:38;18.80;99.90
16838;DHT22;19510;54.486;9.046;2023-05-07T12:31:05;18.70;99.90
16838;DHT22;19510;54.486;9.046;2023-05-07T12:33:31;18.60;99.90
16838;DHT22;19510;54.486;9.046;2023-05-07T12:35:58;18.50;99.90
16838;DHT22;19510;54.486;9.046;2023-05-07T12:38:23;18.40;99.90
16838;DHT22;19510;54.486;9.046;2023-05-07T12:40:53;18.20;99.90
16838;DHT22;19510;54.486;9.046;2023-05-07T12:43:25;18.10;99.90
16838;DHT22;19510;54.486;9.046;2023-05-07T12:45:53;18.20;99.90
16838;DHT22;19510;54.486;9.046;2023-05-07T12:48:20;18.30;99.90
16838;DHT22;19510;54.486;9.046;2023-05-07T12:50:49;18.50;99.90
16838;DHT22;19510;54.486;9.046;2023-05-07T12:53:15;18.60;99.90
16838;DHT22;19510;54.486;9.046;2023-05-07T12:55:46;18.80;99.90
16838;DHT22;19510;54.486;9.046;2023-05-07T12:58:29;18.90;99.90
16838;DHT22;19510;54.486;9.046;2023-05-07T13:00:56;19.10;99.90
16838;DHT22;19510;54.486;9.046;2023-05-07T13:03:31;19.20;99.90
16838;DHT22;19510;54.486;9.046;2023-05-07T13:06:01;19.60;99.90
16838;DHT22;19510;54.486;9.046;2023-05-07T13:08:35;19.70;99.90
16838;DHT22;19510;54.486;9.046;2023-05-07T13:11:07;19.70;99.90
16838;DHT22;19510;54.486;9.046;2023-05-07T13:13:35;19.60;99.90
16838;DHT22;19510;54.486;9.046;2023-05-07T13:16:02;19.70;99.90
16838;DHT22;19510;54.486;9.046;2023-05-07T13:18:30;19.70;99.90
16838;DHT22;19510;54.486;9.046;2023-05-07T13:20:56;19.90;99.90
16838;DHT22;19510;54.486;9.046;2023-05-07T13:23:22;20.10;99.90
16838;DHT22;19510;54.486;9.046;2023-05-07T13:25:48;20.20;99.90
16838;DHT22;19510;54.486;9.046;2023-05-07T13:28:14;20.40;99.90
16838;DHT22;19510;54.486;9.046;2023-05-07T13:30:40;20.50;99.90
16838;DHT22;19510;54.486;9.046;2023-05-07T13:33:07;20.60;99.90
16838;DHT22;19510;54.486;9.046;2023-05-07T13:35:33;20.60;99.90
16838;DHT22;19510;54.486;9.046;2023-05-07T13:37:59;20.60;99.90
16838;DHT22;19510;54.486;9.046;2023-05-07T13:40:24;20.70;99.90
16838;DHT22;19510;54.486;9.046;2023-05-07T13:42:50;21.00;99.90
16838;DHT22;19510;54.486;9.046;2023-05-07T13:45:17;21.10;99.90
16838;DHT22;19510;54.486;9.046;2023-05-07T13:47:43;21.10;99.90
16838;DHT22;19510;54.486;9.046;2023-05-07T13:50:10;21.20;99.90
16838;DHT22;19510;54.486;9.046;2023-05-07T13:52:37;21.20;99.90
16838;DHT22;19510;54.486;9.046;2023-05-07T13:55:03;21.00;99.90
16838;DHT22;19510;54.486;9.046;2023-05-07T13:57:29;21.00;99.90
16838;DHT22;19510;54.486;9.046;2023-05-07T13:59:55;21.30;99.90
16838;DHT22;19510;54.486;9.046;2023-05-07T14:02:23;21.20;99.90
16838;DHT22;19510;54.486;9.046;2023-05-07T14:04:49;21.40;99.90
16838;DHT22;19510;54.486;9.046;2023-05-07T14:07:14;21.60;99.90
16838;DHT22;19510;54.486;9.046;2023-05-07T14:09:40;21.60;99.90
16838;DHT22;19510;54.486;9.046;2023-05-07T14:12:06;21.60;99.90
16838;DHT22;19510;54.486;9.046;2023-05-07T14:14:32;21.70;99.90
16838;DHT22;19510;54.486;9.046;2023-05-07T14:16:57;21.80;99.90
16838;DHT22;19510;54.486;9.046;2023-05-07T14:19:23;21.80;99.90
16838;DHT22;19510;54.486;9.046;2023-05-07T14:21:49;21.80;99.90
16838;DHT22;19510;54.486;9.046;2023-05-07T14:24:14;21.80;99.90
16838;DHT22;19510;54.486;9.046;2023-05-07T14:26:40;21.90;99.90
16838;DHT22;19510;54.486;9.046;2023-05-07T14:29:06;22.00;99.90
16838;DHT22;19510;54.486;9.046;2023-05-07T14:31:32;22.10;99.90
16838;DHT22;19510;54.486;9.046;2023-05-07T14:33:58;21.90;99.90
16838;DHT22;19510;54.486;9.046;2023-05-07T14:36:24;21.90;99.90
16838;DHT22;19510;54.486;9.046;2023-05-07T14:38:52;22.10;99.90
16838;DHT22;19510;54.486;9.046;2023-05-07T14:41:22;22.10;99.90
16838;DHT22;19510;54.486;9.046;2023-05-07T14:43:48;22.00;99.90
16838;DHT22;19510;54.486;9.046;2023-05-07T14:46:18;22.20;99.90
16838;DHT22;19510;54.486;9.046;2023-05-07T14:48:47;22.10;99.90
16838;DHT22;19510;54.486;9.046;2023-05-07T14:51:13;22.10;99.90
16838;DHT22;19510;54.486;9.046;2023-05-07T14:53:41;22.10;99.90
16838;DHT22;19510;54.486;9.046;2023-05-07T14:56:07;22.00;99.90
16838;DHT22;19510;54.486;9.046;2023-05-07T14:58:33;22.20;99.90
16838;DHT22;19510;54.486;9.046;2023-05-07T15:00:59;22.20;99.90
16838;DHT22;19510;54.486;9.046;2023-05-07T15:03:25;22.20;99.90
16838;DHT22;19510;54.486;9.046;2023-05-07T15:05:51;22.50;99.90
16838;DHT22;19510;54.486;9.046;2023-05-07T15:08:17;22.50;99.90
16838;DHT22;19510;54.486;9.046;2023-05-07T15:10:43;22.30;99.90
16838;DHT22;19510;54.486;9.046;2023-05-07T15:13:10;22.40;99.90
16838;DHT22;19510;54.486;9.046;2023-05-07T15:15:37;22.50;99.90
16838;DHT22;19510;54.486;9.046;2023-05-07T15:18:03;22.50;99.90
16838;DHT22;19510;54.486;9.046;2023-05-07T15:20:30;22.30;99.90
16838;DHT22;19510;54.486;9.046;2023-05-07T15:22:56;22.50;99.90
16838;DHT22;19510;54.486;9.046;2023-05-07T15:25:22;22.40;99.90
16838;DHT22;19510;54.486;9.046;2023-05-07T15:27:50;21.60;99.90
16838;DHT22;19510;54.486;9.046;2023-05-07T15:30:16;21.70;99.90
16838;DHT22;19510;54.486;9.046;2023-05-07T15:32:42;21.70;99.90
16838;DHT22;19510;54.486;9.046;2023-05-07T15:35:09;21.30;99.90
16838;DHT22;19510;54.486;9.046;2023-05-07T15:37:35;21.30;99.90
16838;DHT22;19510;54.486;9.046;2023-05-07T15:40:03;21.20;99.90